createdAt,value
2018-06-18T00:01:29.923Z,46.13
2018-06-18T00:03:58.448Z,46.15
2018-06-18T00:06:27.057Z,45.81
2018-06-18T00:08:55.569Z,45.88
2018-06-18T00:11:24.212Z,45.56
2018-06-18T00:13:52.841Z,45.75
2018-06-18T00:16:21.428Z,45.96
2018-06-18T00:19:21.152Z,46.55
2018-06-18T00:21:50.015Z,45.92
2018-06-18T00:24:18.838Z,46.34
2018-06-18T00:26:47.592Z,45.75
2018-06-18T00:29:16.416Z,45.59
2018-06-18T00:31:45.276Z,45.62
2018-06-18T00:34:14.034Z,45.81
2018-06-18T00:36:42.857Z,45.44
2018-06-18T00:39:11.553Z,45.32
2018-06-18T00:41:40.273Z,45.39
2018-06-18T00:44:08.936Z,45.51
2018-06-18T00:46:37.592Z,45.48
2018-06-18T00:49:06.284Z,44.97
2018-06-18T00:51:35.214Z,45.17
2018-06-18T00:54:03.937Z,45.30
2018-06-18T00:56:32.671Z,44.92
2018-06-18T00:59:01.530Z,45.32
2018-06-18T01:01:30.325Z,45.18
2018-06-18T01:03:59.151Z,45.27
2018-06-18T01:06:27.914Z,44.90
2018-06-18T01:08:56.553Z,45.28
2018-06-18T01:11:25.192Z,45.70
2018-06-18T01:13:53.885Z,45.76
2018-06-18T01:16:22.650Z,45.54
2018-06-18T01:18:51.345Z,45.78
2018-06-18T01:21:20.348Z,45.71
2018-06-18T01:23:58.979Z,44.89
2018-06-18T01:26:27.693Z,45.57
2018-06-18T01:28:56.496Z,45.17
2018-06-18T01:31:25.301Z,45.18
2018-06-18T01:33:56.661Z,45.71
2018-06-18T01:36:25.495Z,45.40
2018-06-18T01:38:54.203Z,45.05
2018-06-18T01:41:22.926Z,46.02
2018-06-18T01:43:51.887Z,45.86
2018-06-18T01:46:21.119Z,44.87
2018-06-18T01:48:49.836Z,45.61
2018-06-18T01:51:18.638Z,44.93
2018-06-18T01:53:47.337Z,45.80
2018-06-18T01:56:16.087Z,45.77
2018-06-18T01:58:44.764Z,45.18
2018-06-18T02:01:13.440Z,45.70
2018-06-18T02:03:42.206Z,45.20
2018-06-18T02:06:10.853Z,45.71
2018-06-18T02:08:39.529Z,44.73
2018-06-18T02:11:08.243Z,45.19
2018-06-18T02:13:36.761Z,45.30
2018-06-18T02:16:05.348Z,45.56
2018-06-18T02:18:34.140Z,45.44
2018-06-18T02:21:02.859Z,46.01
2018-06-18T02:23:31.609Z,45.92
2018-06-18T02:26:00.429Z,46.10
2018-06-18T02:28:34.356Z,46.73
2018-06-18T02:31:08.206Z,46.41
2018-06-18T02:33:42.068Z,46.82
2018-06-18T02:36:15.794Z,46.38
2018-06-18T02:38:49.592Z,46.59
2018-06-18T02:41:18.165Z,47.26
2018-06-18T02:43:46.780Z,46.83
2018-06-18T02:46:15.512Z,47.08
2018-06-18T02:48:44.189Z,47.55
2018-06-18T02:51:13.074Z,47.60
2018-06-18T02:53:41.910Z,47.96
2018-06-18T02:56:10.824Z,48.32
2018-06-18T02:58:39.800Z,47.94
2018-06-18T03:01:08.697Z,48.88
2018-06-18T03:03:37.426Z,48.62
2018-06-18T03:06:06.186Z,48.63
2018-06-18T03:08:35.008Z,49.90
2018-06-18T03:11:03.828Z,49.47
2018-06-18T03:13:32.943Z,49.70
2018-06-18T03:16:01.984Z,49.95
2018-06-18T03:18:35.891Z,50.33
2018-06-18T03:21:09.804Z,50.82
2018-06-18T03:23:44.151Z,51.24
2018-06-18T03:26:17.890Z,51.29
2018-06-18T03:28:51.752Z,51.20
2018-06-18T03:31:20.589Z,51.88
2018-06-18T03:33:49.280Z,51.72
2018-06-18T03:36:17.996Z,51.89
2018-06-18T03:38:47.975Z,52.34
2018-06-18T03:41:16.889Z,52.53
2018-06-18T03:43:49.728Z,52.28
2018-06-18T03:46:18.336Z,52.19
2018-06-18T03:48:47.375Z,52.87
2018-06-18T03:51:16.351Z,52.37
2018-06-18T03:53:45.140Z,52.69
2018-06-18T03:56:13.899Z,52.65
2018-06-18T03:58:42.991Z,52.65
2018-06-18T04:01:31.269Z,52.16
2018-06-18T04:04:07.540Z,52.36
2018-06-18T04:06:41.194Z,52.44
2018-06-18T04:09:15.034Z,52.16
2018-06-18T04:11:48.885Z,52.63
2018-06-18T04:14:17.609Z,52.14
2018-06-18T04:16:46.535Z,52.97
2018-06-18T04:19:15.405Z,51.69
2018-06-18T04:21:44.039Z,51.75
2018-06-18T04:24:12.741Z,51.72
2018-06-18T04:26:41.930Z,51.62
2018-06-18T04:29:10.625Z,51.49
2018-06-18T04:31:39.277Z,51.28
2018-06-18T04:34:21.734Z,51.29
2018-06-18T04:36:50.466Z,50.75
2018-06-18T04:39:19.181Z,51.28
2018-06-18T04:41:53.164Z,51.21
2018-06-18T04:44:27.114Z,50.86
2018-06-18T04:47:01.063Z,50.72
2018-06-18T04:49:35.061Z,51.33
2018-06-18T04:52:04.438Z,50.54
2018-06-18T04:54:33.285Z,51.25
2018-06-18T04:57:02.549Z,50.99
2018-06-18T04:59:32.355Z,51.14
2018-06-18T05:02:04.246Z,50.62
2018-06-18T05:04:33.311Z,50.11
2018-06-18T05:07:02.132Z,50.56
2018-06-18T05:10:33.548Z,50.00
2018-06-18T05:13:02.537Z,50.44
2018-06-18T05:15:36.884Z,49.69
2018-06-18T05:18:06.122Z,49.63
2018-06-18T05:20:34.900Z,49.65
2018-06-18T05:23:08.008Z,49.35
2018-06-18T05:25:36.856Z,49.04
2018-06-18T05:28:05.837Z,49.62
2018-06-18T05:30:34.463Z,48.76
2018-06-18T05:33:03.277Z,48.71
2018-06-18T05:35:32.060Z,48.91
2018-06-18T05:38:04.223Z,49.15
2018-06-18T05:40:33.524Z,48.62
2018-06-18T05:43:02.062Z,49.34
2018-06-18T05:45:30.616Z,48.66
2018-06-18T05:47:59.343Z,48.98
2018-06-18T05:50:27.936Z,48.13
2018-06-18T05:52:56.772Z,47.69
2018-06-18T05:55:25.489Z,47.94
2018-06-18T05:57:54.033Z,46.89
2018-06-18T06:00:22.514Z,46.28
2018-06-18T06:02:51.426Z,47.02
2018-06-18T06:05:20.239Z,46.21
2018-06-18T06:07:48.924Z,45.92
2018-06-18T06:10:17.725Z,47.25
2018-06-18T06:12:46.328Z,46.50
2018-06-18T06:15:16.123Z,46.17
2018-06-18T06:17:44.870Z,46.04
2018-06-18T06:20:13.599Z,45.94
2018-06-18T06:22:42.229Z,46.38
2018-06-18T06:25:10.945Z,46.16
2018-06-18T06:27:39.711Z,45.76
2018-06-18T06:30:08.629Z,45.17
2018-06-18T06:32:37.263Z,44.75
2018-06-18T06:35:17.957Z,45.14
2018-06-18T06:37:47.226Z,45.04
2018-06-18T06:40:15.917Z,44.39
2018-06-18T06:42:45.235Z,44.82
2018-06-18T06:45:13.879Z,44.84
2018-06-18T06:47:42.548Z,44.12
2018-06-18T06:50:11.148Z,43.33
2018-06-18T06:52:39.753Z,42.52
2018-06-18T06:55:08.346Z,42.13
2018-06-18T06:57:37.534Z,42.57
2018-06-18T07:00:06.572Z,40.18
2018-06-18T07:02:36.056Z,41.26
2018-06-18T07:05:04.680Z,40.72
2018-06-18T07:07:33.358Z,40.43
2018-06-18T07:10:01.888Z,40.08
2018-06-18T07:12:30.580Z,39.26
2018-06-18T07:14:59.160Z,39.24
2018-06-18T07:17:27.808Z,38.61
2018-06-18T07:19:56.415Z,38.42
2018-06-18T07:22:25.154Z,39.19
2018-06-18T07:24:53.742Z,38.75
2018-06-18T07:27:22.289Z,39.01
2018-06-18T07:29:50.766Z,39.53
2018-06-18T07:32:19.337Z,40.11
2018-06-18T07:34:47.960Z,39.50
2018-06-18T07:37:16.809Z,40.65
2018-06-18T07:39:45.316Z,41.30
2018-06-18T07:42:13.986Z,41.40
2018-06-18T07:44:42.635Z,42.21
2018-06-18T07:47:11.133Z,41.69
2018-06-18T07:49:39.699Z,42.44
2018-06-18T07:52:08.200Z,42.05
2018-06-18T07:54:36.966Z,41.80
2018-06-18T07:57:05.723Z,41.70
2018-06-18T07:59:34.517Z,41.28
2018-06-18T08:02:03.070Z,41.18
2018-06-18T08:04:31.555Z,39.93
2018-06-18T08:07:00.097Z,37.27
2018-06-18T08:09:29.536Z,37.43
2018-06-18T08:11:58.023Z,33.83
2018-06-18T08:14:26.547Z,34.15
2018-06-18T08:16:55.082Z,33.29
2018-06-18T08:19:23.625Z,34.02
2018-06-18T08:21:52.209Z,34.49
2018-06-18T08:24:21.051Z,35.40
2018-06-18T08:26:49.551Z,35.82
2018-06-18T08:29:18.016Z,35.61
2018-06-18T08:31:46.611Z,36.33
2018-06-18T08:34:15.152Z,36.60
2018-06-18T08:36:43.680Z,36.69
2018-06-18T08:39:12.649Z,37.04
2018-06-18T08:41:41.360Z,37.32
2018-06-18T08:44:09.877Z,37.45
2018-06-18T08:46:38.522Z,37.47
2018-06-18T08:49:08.363Z,38.38
2018-06-18T08:51:42.093Z,39.09
2018-06-18T08:54:15.717Z,38.22
2018-06-18T08:56:49.530Z,38.46
2018-06-18T08:59:23.476Z,37.28
2018-06-18T09:01:52.086Z,37.69
2018-06-18T09:04:25.923Z,37.37
2018-06-18T09:06:58.553Z,36.84
2018-06-18T09:09:27.091Z,37.91
2018-06-18T09:11:55.659Z,36.76
2018-06-18T09:14:24.131Z,35.12
2018-06-18T09:16:52.702Z,33.52
2018-06-18T09:19:21.178Z,32.77
2018-06-18T09:21:49.698Z,33.36
2018-06-18T09:24:18.323Z,31.34
2018-06-18T09:26:47.548Z,31.92
2018-06-18T09:29:16.064Z,31.21
2018-06-18T09:31:49.196Z,30.86
2018-06-18T09:34:17.713Z,29.83
2018-06-18T09:36:46.224Z,29.85
2018-06-18T09:39:14.768Z,30.54
2018-06-18T09:41:43.311Z,30.85
2018-06-18T09:44:11.848Z,31.04
2018-06-18T09:46:40.362Z,32.53
2018-06-18T09:49:14.018Z,32.26
2018-06-18T09:53:51.564Z,31.82
2018-06-18T09:56:25.203Z,34.15
2018-06-18T09:58:58.860Z,34.80
2018-06-18T10:01:33.661Z,34.41
2018-06-18T10:04:03.791Z,34.97
2018-06-18T10:06:34.590Z,35.37
2018-06-18T10:09:06.245Z,35.31
2018-06-18T10:11:35.552Z,35.78
2018-06-18T10:14:04.771Z,34.89
2018-06-18T10:16:33.480Z,34.99
2018-06-18T10:19:02.378Z,36.05
2018-06-18T10:21:31.265Z,36.29
2018-06-18T10:23:59.905Z,36.14
2018-06-18T10:26:28.703Z,36.11
2018-06-18T10:28:57.546Z,36.01
2018-06-18T10:31:26.269Z,36.99
2018-06-18T10:33:59.907Z,36.80
2018-06-18T10:36:34.155Z,36.11
2018-06-18T10:39:08.357Z,36.57
2018-06-18T10:41:42.369Z,36.62
2018-06-18T10:44:11.254Z,36.07
2018-06-18T10:46:40.216Z,36.70
2018-06-18T10:49:09.119Z,35.86
2018-06-18T10:51:38.032Z,33.95
2018-06-18T10:54:06.773Z,34.13
2018-06-18T10:56:35.550Z,32.64
2018-06-18T10:59:04.404Z,32.66
2018-06-18T11:01:34.013Z,33.25
2018-06-18T11:04:03.708Z,33.01
2018-06-18T11:06:33.397Z,34.88
2018-06-18T11:09:02.639Z,33.86
2018-06-18T11:11:31.507Z,33.84
2018-06-18T11:14:00.491Z,34.54
2018-06-18T11:16:29.830Z,34.56
2018-06-18T11:19:03.655Z,35.72
2018-06-18T11:21:37.505Z,35.48
2018-06-18T11:24:11.506Z,36.38
2018-06-18T11:26:45.351Z,35.96
2018-06-18T11:29:13.963Z,35.56
2018-06-18T11:31:42.687Z,35.71
2018-06-18T11:34:11.501Z,35.79
2018-06-18T11:36:40.617Z,36.83
2018-06-18T11:39:10.183Z,36.85
2018-06-18T11:41:39.056Z,36.74
2018-06-18T11:44:07.728Z,36.94
2018-06-18T11:46:36.454Z,38.39
2018-06-18T11:49:05.354Z,38.05
2018-06-18T11:51:34.167Z,39.34
2018-06-18T11:54:02.950Z,39.34
2018-06-18T11:56:33.212Z,38.94
2018-06-18T11:59:07.376Z,39.17
2018-06-18T12:01:42.108Z,39.48
2018-06-18T12:04:17.042Z,39.84
2018-06-18T12:06:51.148Z,41.09
2018-06-18T12:09:25.692Z,40.64
2018-06-18T12:11:56.236Z,41.12
2018-06-18T12:14:26.057Z,41.19
2018-06-18T12:16:57.168Z,41.79
2018-06-18T12:19:26.146Z,40.90
2018-06-18T12:21:55.335Z,42.19
2018-06-18T12:24:24.051Z,42.31
2018-06-18T12:26:54.301Z,42.59
2018-06-18T12:29:33.604Z,42.10
2018-06-18T12:32:03.295Z,43.36
2018-06-18T12:34:32.695Z,43.37
2018-06-18T12:37:01.549Z,43.89
2018-06-18T12:39:30.371Z,44.00
2018-06-18T12:42:02.317Z,44.36
2018-06-18T12:44:37.284Z,45.57
2018-06-18T12:47:11.455Z,45.28
2018-06-18T12:49:45.234Z,46.63
2018-06-18T12:52:19.156Z,45.99
2018-06-18T12:54:53.282Z,46.86
2018-06-18T12:57:21.873Z,48.65
2018-06-18T12:59:50.449Z,48.54
2018-06-18T13:03:22.939Z,49.43
2018-06-18T13:05:51.497Z,50.32
2018-06-18T13:08:20.204Z,50.99
2018-06-18T13:10:48.758Z,51.03
2018-06-18T13:13:17.424Z,51.15
2018-06-18T13:15:46.093Z,50.69
2018-06-18T13:18:14.648Z,50.31
2018-06-18T13:20:43.253Z,50.74
2018-06-18T13:23:11.989Z,51.00
2018-06-18T13:25:40.496Z,51.55
2018-06-18T13:28:14.265Z,51.49
2018-06-18T13:30:42.923Z,52.07
2018-06-18T13:33:11.572Z,51.62
2018-06-18T13:35:40.272Z,52.77
2018-06-18T13:38:14.084Z,52.99
2018-06-18T13:40:47.770Z,52.83
2018-06-18T13:43:21.674Z,52.27
2018-06-18T13:48:01.235Z,52.17
2018-06-18T13:50:29.899Z,53.38
2018-06-18T13:52:58.596Z,53.36
2018-06-18T13:55:27.218Z,52.55
2018-06-18T13:57:55.798Z,53.01
2018-06-18T14:00:24.540Z,52.98
2018-06-18T14:02:53.101Z,52.78
2018-06-18T14:05:21.715Z,52.97
2018-06-18T14:07:50.373Z,52.89
2018-06-18T14:10:19.121Z,53.87
2018-06-18T14:12:47.718Z,52.91
2018-06-18T14:15:16.301Z,53.48
2018-06-18T14:17:45.015Z,53.43
2018-06-18T14:20:18.875Z,53.82
2018-06-18T14:22:47.933Z,53.65
2018-06-18T14:25:16.606Z,54.66
2018-06-18T14:27:45.267Z,54.54
2018-06-18T14:30:19.044Z,54.71
2018-06-18T14:32:52.972Z,55.01
2018-06-18T14:35:26.799Z,55.34
2018-06-18T14:38:01.019Z,54.30
2018-06-18T14:40:29.895Z,54.68
2018-06-18T14:42:58.489Z,55.05
2018-06-18T14:45:27.268Z,53.87
2018-06-18T14:47:56.005Z,53.90
2018-06-18T14:50:24.610Z,54.10
2018-06-18T14:52:53.293Z,52.76
2018-06-18T14:55:21.877Z,53.68
2018-06-18T14:57:50.471Z,52.45
2018-06-18T15:00:22.376Z,52.72
2018-06-18T15:02:51.055Z,51.93
2018-06-18T15:05:20.122Z,51.59
2018-06-18T15:07:48.999Z,51.70
2018-06-18T15:10:18.062Z,52.05
2018-06-18T15:12:52.947Z,51.01
2018-06-18T15:15:26.685Z,50.18
2018-06-18T15:20:33.452Z,49.41
2018-06-18T15:23:06.377Z,48.10
2018-06-18T15:25:41.432Z,48.38
2018-06-18T15:28:10.335Z,48.16
2018-06-18T15:30:40.142Z,49.19
2018-06-18T15:33:11.661Z,48.03
2018-06-18T15:35:42.415Z,48.38
2018-06-18T15:38:11.548Z,48.58
2018-06-18T15:40:40.262Z,48.64
2018-06-18T15:43:10.106Z,48.68
2018-06-18T15:45:39.355Z,48.05
2018-06-18T15:48:08.146Z,48.03
2018-06-18T15:50:37.063Z,47.98
2018-06-18T15:53:06.397Z,48.85
2018-06-18T15:55:35.380Z,49.67
2018-06-18T15:58:04.679Z,50.26
2018-06-18T16:00:34.656Z,49.67
2018-06-18T16:03:03.730Z,50.32
2018-06-18T16:05:35.547Z,50.35
2018-06-18T16:08:07.607Z,49.35
2018-06-18T16:10:36.359Z,48.86
2018-06-18T16:13:04.919Z,49.39
2018-06-18T16:15:33.628Z,48.62
2018-06-18T16:18:02.257Z,48.60
2018-06-18T16:20:30.941Z,50.05
2018-06-18T16:22:59.580Z,49.71
2018-06-18T16:25:28.166Z,49.07
2018-06-18T16:27:56.898Z,49.07
2018-06-18T16:30:26.866Z,48.99
2018-06-18T16:32:56.395Z,48.75
2018-06-18T16:35:25.134Z,48.12
2018-06-18T16:37:53.733Z,48.12
2018-06-18T16:40:22.502Z,47.95
2018-06-18T16:42:51.291Z,48.10
2018-06-18T16:45:19.874Z,47.80
2018-06-18T16:47:48.466Z,48.22
2018-06-18T16:50:17.072Z,48.38
2018-06-18T16:52:45.699Z,48.34
2018-06-18T16:55:14.910Z,47.54
2018-06-18T16:57:43.603Z,48.14
2018-06-18T17:00:12.171Z,47.62
2018-06-18T17:02:40.787Z,48.48
2018-06-18T17:05:09.380Z,48.36
2018-06-18T17:07:37.915Z,48.05
2018-06-18T17:10:06.576Z,47.55
2018-06-18T17:12:35.210Z,48.03
2018-06-18T17:15:03.933Z,48.05
2018-06-18T17:17:32.627Z,47.26
2018-06-18T17:20:01.157Z,48.08
2018-06-18T17:22:29.733Z,47.43
2018-06-18T17:24:58.859Z,47.74
2018-06-18T17:30:19.934Z,46.88
2018-06-18T17:32:50.090Z,46.80
2018-06-18T17:35:23.215Z,47.53
2018-06-18T17:37:54.306Z,47.32
2018-06-18T17:40:23.172Z,47.64
2018-06-18T17:42:52.093Z,47.72
2018-06-18T17:45:26.550Z,47.82
2018-06-18T17:47:55.339Z,48.43
2018-06-18T17:50:24.347Z,48.64
2018-06-18T17:52:53.098Z,48.85
2018-06-18T17:55:30.508Z,49.23
2018-06-18T17:58:02.977Z,49.14
2018-06-18T18:00:31.717Z,49.20
2018-06-18T18:03:01.235Z,49.04
2018-06-18T18:05:31.047Z,48.98
2018-06-18T18:08:01.139Z,49.27
2018-06-18T18:10:30.485Z,48.72
2018-06-18T18:13:04.942Z,49.36
2018-06-18T18:15:34.295Z,49.09
2018-06-18T18:18:03.265Z,48.44
2018-06-18T18:20:32.006Z,48.40
2018-06-18T18:23:01.303Z,48.93
2018-06-18T18:25:30.083Z,49.12
2018-06-18T18:27:59.133Z,48.60
2018-06-18T18:30:28.032Z,48.21
2018-06-18T18:32:56.888Z,49.06
2018-06-18T18:35:26.110Z,48.65
2018-06-18T18:37:54.954Z,49.07
2018-06-18T18:40:24.688Z,48.53
2018-06-18T18:43:02.418Z,48.41
2018-06-18T18:45:32.265Z,48.76
2018-06-18T18:48:01.664Z,48.86
2018-06-18T18:50:30.493Z,49.71
2018-06-18T18:53:00.042Z,50.17
2018-06-18T18:59:41.253Z,49.64
2018-06-18T19:02:11.064Z,50.02
2018-06-18T19:04:47.756Z,50.25
2018-06-18T19:07:18.846Z,50.03
2018-06-18T19:10:29.684Z,51.09
2018-06-18T19:13:00.174Z,51.30
2018-06-18T19:15:29.105Z,50.76
2018-06-18T19:17:58.011Z,51.44
2018-06-18T19:20:34.013Z,51.24
2018-06-18T19:23:04.050Z,51.54
2018-06-18T19:25:33.300Z,50.78
2018-06-18T19:28:02.732Z,50.85
2018-06-18T19:30:32.907Z,51.64
2018-06-18T19:33:07.710Z,51.82
2018-06-18T19:35:36.567Z,51.65
2018-06-18T19:38:05.872Z,51.04
2018-06-18T19:40:34.717Z,51.37
2018-06-18T19:43:03.342Z,51.08
2018-06-18T19:45:33.694Z,51.12
2018-06-18T19:48:06.892Z,51.79
2018-06-18T19:50:35.598Z,51.08
2018-06-18T19:53:04.613Z,51.14
2018-06-18T19:55:34.191Z,51.66
2018-06-18T19:58:02.992Z,51.36
2018-06-18T20:01:04.508Z,51.93
2018-06-18T20:03:33.443Z,51.25
2018-06-18T20:06:02.125Z,51.23
2018-06-18T20:08:31.494Z,51.52
2018-06-18T20:11:00.224Z,52.03
2018-06-18T20:13:29.142Z,51.83
2018-06-18T20:15:57.862Z,51.00
2018-06-18T20:18:26.598Z,51.37
2018-06-18T20:20:55.169Z,51.48
2018-06-18T20:23:25.353Z,51.98
2018-06-18T20:26:01.222Z,51.15
2018-06-18T20:28:29.987Z,51.04
2018-06-18T20:30:58.743Z,50.81
2018-06-18T20:33:27.599Z,51.53
2018-06-18T20:36:03.394Z,51.28
2018-06-18T20:38:31.988Z,51.28
2018-06-18T20:41:01.123Z,51.17
2018-06-18T20:43:33.436Z,50.38
2018-06-18T20:46:02.430Z,50.79
2018-06-18T20:48:31.003Z,50.77
2018-06-18T20:51:00.180Z,50.38
2018-06-18T20:53:28.977Z,50.46
2018-06-18T20:55:58.508Z,50.41
2018-06-18T20:58:27.437Z,50.15
2018-06-18T21:00:56.236Z,50.83
2018-06-18T21:03:25.299Z,50.78
2018-06-18T21:05:54.082Z,50.72
2018-06-18T21:08:23.049Z,50.45
2018-06-18T21:10:51.720Z,50.59
2018-06-18T21:13:20.504Z,50.76
2018-06-18T21:15:49.912Z,49.76
2018-06-18T21:18:19.262Z,50.22
2018-06-18T21:20:48.051Z,50.11
2018-06-18T21:23:16.835Z,50.60
2018-06-18T21:25:45.362Z,50.40
2018-06-18T21:28:14.266Z,49.73
2018-06-18T21:30:43.211Z,49.83
2018-06-18T21:33:12.065Z,50.51
2018-06-18T21:35:40.960Z,50.40
2018-06-18T21:38:09.765Z,49.65
2018-06-18T21:40:38.705Z,49.56
2018-06-18T21:43:07.533Z,49.58
2018-06-18T21:45:36.264Z,49.95
2018-06-18T21:48:04.926Z,49.19
2018-06-18T21:50:33.487Z,49.93
2018-06-18T21:53:02.126Z,50.17
2018-06-18T21:55:30.742Z,49.52
2018-06-18T21:57:59.336Z,49.28
2018-06-18T22:00:35.068Z,49.35
2018-06-18T22:03:03.684Z,49.68
2018-06-18T22:05:32.273Z,49.66
2018-06-18T22:08:01.153Z,50.07
2018-06-18T22:10:29.695Z,49.75
2018-06-18T22:12:58.207Z,49.27
2018-06-18T22:15:26.737Z,49.93
2018-06-18T22:17:56.195Z,49.53
2018-06-18T22:20:24.891Z,49.02
2018-06-18T22:22:53.663Z,48.85
2018-06-18T22:25:22.187Z,49.45
2018-06-18T22:27:50.897Z,49.16
2018-06-18T22:30:19.579Z,49.27
2018-06-18T22:32:48.372Z,49.27
2018-06-18T22:35:17.024Z,49.07
2018-06-18T22:37:45.612Z,49.46
2018-06-18T22:40:14.393Z,49.56
2018-06-18T22:42:43.167Z,49.71
2018-06-18T22:45:13.382Z,49.24
2018-06-18T22:47:42.057Z,49.38
2018-06-18T22:50:10.584Z,49.97
2018-06-18T22:52:39.252Z,49.45
2018-06-18T22:55:07.804Z,49.72
2018-06-18T22:57:36.310Z,50.51
2018-06-18T23:00:04.833Z,50.56
2018-06-18T23:02:33.903Z,50.63
2018-06-18T23:05:02.439Z,50.88
2018-06-18T23:07:30.992Z,50.71
2018-06-18T23:09:59.787Z,50.76
2018-06-18T23:12:37.256Z,51.42
2018-06-18T23:15:06.921Z,50.62
2018-06-18T23:17:35.517Z,51.20
2018-06-18T23:20:04.084Z,50.98
2018-06-18T23:22:32.635Z,51.38
2018-06-18T23:25:01.198Z,51.91
2018-06-18T23:27:29.758Z,52.08
2018-06-18T23:29:58.373Z,51.50
2018-06-18T23:32:26.981Z,51.60
2018-06-18T23:34:55.608Z,52.11
2018-06-18T23:37:24.206Z,51.98
2018-06-18T23:39:52.740Z,52.40
2018-06-18T23:42:21.309Z,51.69
2018-06-18T23:44:49.890Z,52.45
2018-06-18T23:47:18.433Z,52.30
2018-06-18T23:49:47.064Z,52.49
2018-06-18T23:52:15.720Z,52.45
2018-06-18T23:54:44.362Z,52.75
2018-06-18T23:57:12.896Z,52.92
2018-06-18T23:59:41.754Z,52.40
